Flight Track Log - Related Links

Times and Time Zones

All times are in EDT time to prevent confusion due to time zone crossing. See the AAL963 flight status page for this flight to view local times or setup timezone preferences in your user account.

Time Position Orientation Groundspeed Altitude Reporting Facility
EDT Latitude Longitude Course Direction KTS MPH feet Rate Location/Type
Fri 09:12:54 PM 32.8490 -97.0560 192° South 193 222 2,100  Level FlightAware ADS-B
Fri 09:13:31 PM 32.8140 -97.0670 195° South 242 278 2,400 806 Climbing FlightAware ADS-B
Fri 09:14:01 PM 32.7760 -97.0780 194° South 265 305 3,000 1,600 Climbing FlightAware ADS-B
Fri 09:14:31 PM 32.7420 -97.0840 188° South 267 307 4,000 2,000 Climbing FlightAware ADS-B
Fri 09:14:58 PM 32.7080 -97.0750 167° South 266 306 4,900 2,093 Climbing FlightAware ADS-B
Fri 09:15:14 PM 32.6910 -97.0640 151° Southeast 269 310 5,500 2,045 Climbing FlightAware ADS-B
Fri 09:15:42 PM 32.6590 -97.0440 152° Southeast 274 315 6,400 2,000 Climbing FlightAware ADS-B
Fri 09:16:11 PM 32.6260 -97.0230 152° Southeast 279 321 7,400 2,000 Climbing FlightAware ADS-B
Fri 09:16:39 PM 32.5930 -97.0030 153° Southeast 284 327 8,300 1,962 Climbing FlightAware ADS-B
Fri 09:17:03 PM 32.5660 -96.9860 152° Southeast 287 330 9,100 1,915 Climbing FlightAware ADS-B
Fri 09:17:26 PM 32.5390 -96.9700 153° Southeast 293 337 9,800 1,333 Climbing FlightAware ADS-B
Fri 09:18:06 PM 32.4880 -96.9390 153° Southeast 323 372 10,500 1,047 Climbing FlightAware ADS-B
Fri 09:18:52 PM 32.4240 -96.8990 152° Southeast 359 413 11,300 1,111 Climbing FlightAware ADS-B
Fri 09:19:27 PM 32.3690 -96.8660 153° Southeast 383 441 12,000 1,403 Climbing FlightAware ADS-B
Fri 09:20:09 PM 32.3040 -96.8280 154° Southeast 398 458 13,100 1,704 Climbing FlightAware ADS-B
Fri 09:20:48 PM 32.2330 -96.7950 159° South 410 472 14,300 1,737 Climbing FlightAware ADS-B
Fri 09:21:25 PM 32.1640 -96.7700 163° South 420 483 15,300 1,606 Climbing FlightAware ADS-B
Fri 09:21:59 PM 32.1010 -96.7457 162° South 428 493 16,200 1,655 Climbing FlightAware ADS-B
Fri 09:22:52 PM 31.9990 -96.7069 162° South 433 498 17,700 1,663 Climbing FlightAware ADS-B
Fri 09:23:22 PM 31.9406 -96.6847 162° South 441 507 18,500 1,645 Climbing FlightAware ADS-B
Fri 09:23:54 PM 31.8783 -96.6611 162° South 448 516 19,400 1,594 Climbing FlightAware ADS-B
Fri 09:24:26 PM 31.8142 -96.6350 161° South 452 520 20,200 1,406 Climbing FlightAware ADS-B
Fri 09:24:58 PM 31.7514 -96.6089 161° South 461 531 20,900 1,404 Climbing FlightAware ADS-B
Fri 09:26:00 PM 31.6257 -96.5574 161° South 468 539 22,400 1,340 Climbing FlightAware ADS-B
Fri 09:26:32 PM 31.5603 -96.5307 161° South 473 544 23,000 1,226 Climbing FlightAware ADS-B
Fri 09:27:33 PM 31.4318 -96.4809 162° South 479 551 24,300 1,263 Climbing FlightAware ADS-B
Fri 09:28:07 PM 31.3599 -96.4515 158° South 477 549 25,000 1,135 Climbing FlightAware ADS-B
Fri 09:28:47 PM 31.2895 -96.3917 136° Southeast 468 539 25,700 1,176 Climbing FlightAware ADS-B
Fri 09:28:58 PM 31.2742 -96.3706 130° Southeast 465 535 26,000 1,167 Climbing FlightAware ADS-B
Fri 09:29:23 PM 31.2430 -96.3210 125° Southeast 465 535 26,400 833 Climbing FlightAware ADS-B
Fri 09:31:58 PM 31.0414 -95.9970 128° Southeast 494 568 28,500 753 Climbing FlightAware ADS-B
Fri 09:32:58 PM 30.9552 -95.8697 128° Southeast 504 580 29,100 593 Climbing FlightAware ADS-B
Fri 09:33:29 PM 30.9112 -95.8048 128° Southeast 509 586 29,400 659 Climbing FlightAware ADS-B
Fri 09:34:29 PM 30.8224 -95.6743 128° Southeast 516 594 30,100 1,006 Climbing FlightAware ADS-B
Fri 09:36:10 PM 30.6744 -95.4572 128° Southeast 507 583 32,100 1,074 Climbing FlightAware ADS-B
Fri 09:37:11 PM 30.5852 -95.3269 128° Southeast 503 579 33,000 587 Climbing FlightAware ADS-B
Fri 09:37:42 PM 30.5418 -95.2636 129° Southeast 500 575 33,000  Level FlightAware ADS-B
Fri 09:38:13 PM 30.4966 -95.1979 129° Southeast 500 575 33,000  Level FlightAware ADS-B
Fri 09:39:14 PM 30.4091 -95.0708 129° Southeast 498 573 33,000  Level FlightAware ADS-B
Fri 09:39:44 PM 30.3653 -95.0075 129° Southeast 499 574 33,000  Level FlightAware ADS-B
Fri 09:40:15 PM 30.3218 -94.9446 129° Southeast 500 575 33,000  Level FlightAware ADS-B
Fri 09:40:45 PM 30.2782 -94.8817 129° Southeast 502 578 33,000  Level FlightAware ADS-B
Fri 09:41:45 PM 30.1897 -94.7543 129° Southeast 504 580 33,000  Level FlightAware ADS-B
Fri 09:42:16 PM 30.1451 -94.6902 129° Southeast 505 581 33,000  Level FlightAware ADS-B
Fri 09:42:47 PM 30.1002 -94.6259 129° Southeast 504 580 33,000  Level FlightAware ADS-B
Fri 09:45:18 PM 29.8791 -94.3104 129° Southeast 504 580 33,000  Level FlightAware ADS-B
Fri 09:45:49 PM 29.8333 -94.2453 129° Southeast 506 582 33,000  Level FlightAware ADS-B
Fri 09:46:20 PM 29.7877 -94.1807 129° Southeast 507 583 33,000  Level FlightAware ADS-B
Fri 09:47:35 PM 29.6726 -94.0264 133° Southeast 511 588 33,000  Level FlightAware ADS-B
Fri 09:48:06 PM 29.6151 -93.9737 141° Southeast 515 593 33,000  Level FlightAware ADS-B
Fri 09:48:39 PM 29.5513 -93.9208 144° Southeast 516 594 33,000  Level FlightAware ADS-B
Fri 09:49:49 PM 29.4156 -93.8072 144° Southeast 517 595 33,000  Level FlightAware ADS-B
Fri 09:50:26 PM 29.3447 -93.7469 143° Southeast 519 597 33,000  Level FlightAware ADS-B
Fri 09:50:56 PM 29.2865 -93.6972 143° Southeast 520 598 33,000  Level FlightAware ADS-B
Fri 09:51:27 PM 29.2278 -93.6471 143° Southeast 520 598 33,000  Level FlightAware ADS-B
Fri 09:51:57 PM 29.1691 -93.5972 143° Southeast 520 598 33,000  Level FlightAware ADS-B
Fri 09:52:28 PM 29.1107 -93.5477 143° Southeast 520 598 33,000  Level FlightAware ADS-B
Fri 09:53:01 PM 29.0467 -93.4935 143° Southeast 521 600 33,000  Level FlightAware ADS-B
Fri 09:53:31 PM 28.9884 -93.4443 144° Southeast 520 598 33,000  Level FlightAware ADS-B
Fri 09:54:01 PM 28.9295 -93.3947 144° Southeast 520 598 33,000  Level FlightAware ADS-B
Fri 09:54:38 PM 28.8586 -93.3350 144° Southeast 521 600 33,000 -74 Level FlightAware ADS-B
Fri 09:55:22 PM 28.7958 -93.2819 144° Southeast 519 597 32,900  Descending Houston Center
Fri 09:56:23 PM 28.6789 -93.1833 143° Southeast 520 598 33,000  Climbing Houston Center
Fri 09:57:24 PM 28.5397 -93.0664 144° Southeast 519 597 32,900 -49 Descending Houston Center
Fri 09:58:25 PM 28.4233 -92.9678 143° Southeast 521 600 32,900  Level Houston Center
Fri 09:59:27 PM 28.3061 -92.8736 145° Southeast 520 598 32,900  Level Houston Center
Fri 10:00:28 PM 28.1886 -92.7744 143° Southeast 524 603 32,900  Level Houston Center
Fri 10:01:29 PM 28.0711 -92.6764 144° Southeast 526 605 32,900 49 Level Houston Center
Fri 10:02:30 PM 27.9531 -92.5800 144° Southeast 524 603 33,000 49 Climbing Houston Center
Fri 10:03:31 PM 27.8361 -92.4850 144° Southeast 520 598 33,000 -49 Level Houston Center
Fri 10:04:32 PM 27.7189 -92.3903 144° Southeast 520 598 32,900 -49 Descending Houston Center
Fri 10:05:33 PM 27.6011 -92.2956 145° Southeast 517 595 32,900  Level Houston Center
Fri 10:06:34 PM 27.4850 -92.1986 143° Southeast 519 597 32,900 49 Level Houston Center
Fri 10:07:35 PM 27.3664 -92.1044 145° Southeast 520 598 33,000  Climbing Houston Center
Fri 10:08:36 PM 27.2258 -91.9933 145° Southeast 518 596 32,900  Descending Houston Center
Fri 10:09:37 PM 27.1100 -91.8981 144° Southeast 516 594 33,000  Climbing Houston Center
Fri 10:10:38 PM 26.9942 -91.8050 144° Southeast 513 590 32,900  Descending Houston Center
Fri 10:12:00 PM 26.8480 -91.6866 144° Southeast  Level FlightAware Approximate
Fri 10:19:00 PM 26.0976 -91.0845 145° Southeast  Level FlightAware Approximate
Fri 10:20:00 PM 25.9898 -90.9999 145° Southeast  Level FlightAware Approximate
Fri 10:21:00 PM 25.8819 -90.9154 145° Southeast  Level FlightAware Approximate
Fri 10:22:00 PM 25.7739 -90.8311 145° Southeast  Level FlightAware Approximate
Fri 10:23:00 PM 25.6659 -90.7469 145° Southeast  Level FlightAware Approximate
Fri 10:24:00 PM 25.5579 -90.6629 145° Southeast  Level FlightAware Approximate
Fri 10:25:00 PM 25.4498 -90.5790 145° Southeast  Level FlightAware Approximate
Fri 10:26:00 PM 25.3417 -90.4953 145° Southeast  Level FlightAware Approximate
Fri 10:27:00 PM 25.2335 -90.4118 145° Southeast  Level FlightAware Approximate
Fri 10:28:00 PM 25.1252 -90.3283 145° Southeast  Level FlightAware Approximate
Fri 10:29:00 PM 25.0170 -90.2451 145° Southeast  Level FlightAware Approximate
Fri 10:30:00 PM 24.9086 -90.1619 145° Southeast  Level FlightAware Approximate
Fri 10:31:00 PM 24.8003 -90.0790 145° Southeast  Level FlightAware Approximate
Fri 10:32:00 PM 24.6918 -89.9961 145° Southeast  Level FlightAware Approximate
Fri 10:33:00 PM 24.5834 -89.9134 145° Southeast  Level FlightAware Approximate
Fri 10:34:00 PM 24.4772 -89.8284 144° Southeast  Level FlightAware Approximate
Fri 10:35:00 PM 24.3710 -89.7434 144° Southeast  Level FlightAware Approximate
Fri 10:36:00 PM 24.2635 -89.6603 146° Southeast  Level FlightAware Approximate
Fri 10:37:00 PM 24.1547 -89.5792 146° Southeast  Level FlightAware Approximate
Fri 10:38:00 PM 24.0460 -89.4983 146° Southeast  Level FlightAware Approximate
Fri 10:39:00 PM 23.9371 -89.4174 146° Southeast  Level FlightAware Approximate
Fri 10:39:26 PM 23.7160 -89.2600 146° Southeast 494 568 33,000  Level FlightAware ADS-B
Fri 10:40:06 PM 23.6520 -89.2120 146° Southeast 494 568 33,000  Level FlightAware ADS-B
Fri 10:40:47 PM 23.5710 -89.1510 145° Southeast 493 567 33,000  Level FlightAware ADS-B
Fri 10:41:35 PM 23.4950 -89.0930 145° Southeast 493 567 33,000  Level FlightAware ADS-B
Fri 10:42:11 PM 23.4380 -89.0490 145° Southeast 493 567 33,000  Level FlightAware ADS-B
Fri 10:42:54 PM 23.3220 -88.9650 146° Southeast 492 566 33,000  Level FlightAware ADS-B
Fri 10:43:31 PM 23.2630 -88.9210 146° Southeast 492 566 33,000  Level FlightAware ADS-B
Fri 10:44:14 PM 23.1710 -88.8530 146° Southeast 492 566 33,000  Level FlightAware ADS-B
Fri 10:44:58 PM 23.0910 -88.7930 145° Southeast 493 567 33,000  Level FlightAware ADS-B
Fri 10:45:43 PM 23.0190 -88.7390 145° Southeast 493 567 33,000  Level FlightAware ADS-B
Fri 10:46:22 PM 22.9290 -88.6740 146° Southeast 495 570 33,000  Level FlightAware ADS-B
Fri 10:46:59 PM 22.8630 -88.6250 146° Southeast 497 572 33,000  Level FlightAware ADS-B
Fri 10:47:42 PM 22.7770 -88.5620 146° Southeast 499 574 33,000  Level FlightAware ADS-B
Fri 10:48:22 PM 22.7010 -88.5050 145° Southeast 499 574 33,000  Level FlightAware ADS-B
Fri 10:49:02 PM 22.6260 -88.4500 146° Southeast 499 574 33,000  Level FlightAware ADS-B
Fri 10:49:38 PM 22.5600 -88.3910 140° Southeast 499 574 33,000  Level FlightAware ADS-B
Fri 10:50:23 PM 22.4890 -88.3190 137° Southeast 497 572 33,000  Level FlightAware ADS-B
Fri 10:50:59 PM 22.4410 -88.2700 137° Southeast 498 573 33,000  Level FlightAware ADS-B
Fri 10:51:42 PM 22.3770 -88.2040 136° Southeast 498 573 33,000  Level FlightAware ADS-B
Fri 10:52:22 PM 22.2870 -88.1130 137° Southeast 498 573 33,000  Level FlightAware ADS-B
Fri 10:53:03 PM 22.2290 -88.0530 136° Southeast 498 573 33,000  Level FlightAware ADS-B
Fri 10:53:43 PM 22.1500 -87.9750 138° Southeast 498 573 33,000  Level FlightAware ADS-B
Fri 10:54:35 PM 22.0680 -87.8920 137° Southeast 499 574 33,000  Level FlightAware ADS-B
Fri 10:55:21 PM 21.9900 -87.8140 137° Southeast 501 577 33,000  Level FlightAware ADS-B
Fri 10:56:01 PM 21.9210 -87.7450 137° Southeast 503 579 33,000  Level FlightAware ADS-B
Fri 10:56:37 PM 21.8540 -87.6770 137° Southeast 505 581 33,000  Level FlightAware ADS-B
Fri 10:57:22 PM 21.7770 -87.6010 137° Southeast 505 581 33,000  Level FlightAware ADS-B
Fri 10:58:01 PM 21.7110 -87.5350 137° Southeast 505 581 33,000  Level FlightAware ADS-B
Fri 10:58:45 PM 21.6390 -87.4640 137° Southeast 505 581 33,000  Level FlightAware ADS-B
Fri 10:59:21 PM 21.5810 -87.4060 137° Southeast 505 581 33,000  Level FlightAware ADS-B
Fri 11:00:09 PM 21.4930 -87.3200 138° Southeast 506 582 33,000  Level FlightAware ADS-B
Fri 11:00:46 PM 21.4290 -87.2560 137° Southeast 508 585 33,000  Level FlightAware ADS-B
Fri 11:01:22 PM 21.3680 -87.1960 138° Southeast 508 585 33,000  Level FlightAware ADS-B
Fri 11:02:06 PM 21.2910 -87.1200 137° Southeast 508 585 33,000  Level FlightAware ADS-B
Fri 11:02:51 PM 21.2110 -87.0420 138° Southeast 508 585 33,000  Level FlightAware ADS-B
Fri 11:03:20 PM 21.1630 -86.9950 138° Southeast 508 585 33,000  Level FlightAware ADS-B
Fri 11:04:06 PM 21.0840 -86.9170 137° Southeast 508 585 33,000  Level FlightAware ADS-B
Fri 11:04:45 PM 21.0140 -86.8480 137° Southeast 506 582 33,000  Level FlightAware ADS-B
Fri 11:05:33 PM 20.9270 -86.7640 138° Southeast 502 578 33,000  Level FlightAware ADS-B
Fri 11:06:13 PM 20.8590 -86.6970 137° Southeast 501 577 33,000  Level FlightAware ADS-B
Fri 11:06:57 PM 20.7840 -86.6240 138° Southeast 501 577 33,000  Level FlightAware ADS-B
Fri 11:07:41 PM 20.7070 -86.5510 138° Southeast 497 572 33,000  Level FlightAware ADS-B
Fri 11:08:20 PM 20.6440 -86.4890 137° Southeast 493 567 33,000  Level FlightAware ADS-B
Fri 11:09:01 PM 20.5710 -86.4190 138° Southeast 494 568 33,000  Level FlightAware ADS-B
Fri 11:10:02 PM 20.4790 -86.3280 137° Southeast 494 568 33,000  Level FlightAware ADS-B
Fri 11:10:39 PM 20.4260 -86.2760 137° Southeast 494 568 33,000  Level FlightAware ADS-B
Fri 11:11:19 PM 20.3460 -86.2010 139° Southeast 497 572 33,000  Level FlightAware ADS-B
Fri 11:12:12 PM 20.2500 -86.1090 138° Southeast 497 572 33,000  Level FlightAware ADS-B
Fri 11:12:53 PM 20.1770 -86.0390 138° Southeast 499 574 33,000  Level FlightAware ADS-B
Fri 11:13:37 PM 20.1020 -85.9670 138° Southeast 499 574 33,000  Level FlightAware ADS-B
Fri 11:14:10 PM 20.0450 -85.9140 139° Southeast 499 574 33,000  Level FlightAware ADS-B
Fri 11:14:53 PM 19.9690 -85.8420 138° Southeast 499 574 33,000  Level FlightAware ADS-B
Fri 11:15:33 PM 19.8950 -85.7850 144° Southeast 497 572 33,000  Level FlightAware ADS-B
Fri 11:16:19 PM 19.8110 -85.7150 142° Southeast 496 571 33,000  Level FlightAware ADS-B
Fri 11:16:59 PM 19.7410 -85.6580 143° Southeast 495 570 33,000 714 Level FlightAware ADS-B
Fri 11:17:43 PM 19.6560 -85.5970 146° Southeast 489 563 34,000 1,071 Climbing FlightAware ADS-B
Fri 11:18:23 PM 19.5740 -85.5560 155° Southeast 491 565 34,500 750 Climbing FlightAware ADS-B
Fri 11:19:03 PM 19.4940 -85.5100 152° Southeast 490 564 35,000 395 Climbing FlightAware ADS-B
Fri 11:19:39 PM 19.4240 -85.4670 150° Southeast 488 562 35,000  Level FlightAware ADS-B
Fri 11:20:23 PM 19.3390 -85.4090 147° Southeast 490 564 35,000  Level FlightAware ADS-B
Fri 11:20:59 PM 19.2750 -85.3560 142° Southeast 492 566 35,000  Level FlightAware ADS-B
Fri 11:21:33 PM 19.2240 -85.3090 139° Southeast 492 566 35,000  Level FlightAware ADS-B
Fri 11:22:33 PM 19.1300 -85.2000 132° Southeast 496 571 35,000  Level FlightAware ADS-B
Fri 11:23:09 PM 19.0830 -85.1450 132° Southeast 496 571 35,000  Level FlightAware ADS-B
Fri 11:23:57 PM 19.0210 -85.0710 132° Southeast 496 571 35,000  Level FlightAware ADS-B
Fri 11:24:57 PM 18.9420 -84.9790 132° Southeast 496 571 35,000  Level FlightAware ADS-B
Fri 11:25:33 PM 18.8950 -84.9240 132° Southeast 496 571 35,000  Level FlightAware ADS-B
Fri 11:26:10 PM 18.8470 -84.8670 132° Southeast 496 571 35,000  Level FlightAware ADS-B
Fri 11:26:46 PM 18.8000 -84.8120 132° Southeast 496 571 35,000  Level FlightAware ADS-B
Fri 11:27:34 PM 18.7380 -84.7390 132° Southeast 496 571 35,000  Level FlightAware ADS-B
Fri 11:28:12 PM 18.6880 -84.6810 132° Southeast 496 571 35,000  Level FlightAware ADS-B
Fri 11:28:48 PM 18.6410 -84.6260 132° Southeast 496 571 35,000  Level FlightAware ADS-B
Fri 11:29:36 PM 18.5780 -84.5520 132° Southeast 496 571 35,000  Level FlightAware ADS-B
Fri 11:30:11 PM 18.5330 -84.4990 132° Southeast 496 571 35,000  Level FlightAware ADS-B
Fri 11:30:59 PM 18.4700 -84.4250 132° Southeast 496 571 35,000  Level FlightAware ADS-B
Fri 11:31:35 PM 18.4230 -84.3700 132° Southeast 496 571 35,000  Level FlightAware ADS-B
Fri 11:34:00 PM 18.1902 -84.1422 137° Southeast  Level Estimated
Fri 11:35:00 PM 18.0937 -84.0481 137° Southeast  Level Estimated
Fri 11:36:00 PM 17.9973 -83.9541 137° Southeast  Level Estimated
Fri 11:37:00 PM 17.9007 -83.8603 137° Southeast  Level Estimated
Fri 11:38:00 PM 17.8042 -83.7665 137° Southeast  Level Estimated
Fri 11:39:00 PM 17.7076 -83.6728 137° Southeast  Level Estimated
Fri 11:40:00 PM 17.6109 -83.5793 137° Southeast  Level Estimated
Fri 11:41:00 PM 17.5142 -83.4858 137° Southeast  Level Estimated
Fri 11:42:00 PM 17.4175 -83.3924 137° Southeast  Level Estimated
Fri 11:43:00 PM 17.3207 -83.2992 137° Southeast  Level Estimated
Fri 11:44:00 PM 17.2239 -83.2060 137° Southeast  Level Estimated
Fri 11:45:00 PM 17.1270 -83.1129 137° Southeast  Level Estimated
Fri 11:46:00 PM 17.0301 -83.0199 137° Southeast  Level Estimated
Fri 11:47:00 PM 16.9331 -82.9271 137° Southeast  Level Estimated
Fri 11:48:00 PM 16.8361 -82.8343 138° Southeast  Level Estimated
Fri 11:49:00 PM 16.7391 -82.7416 138° Southeast  Level Estimated
Fri 11:50:00 PM 16.6420 -82.6490 138° Southeast  Level Estimated
Fri 11:51:00 PM 16.5449 -82.5565 138° Southeast  Level Estimated
Fri 11:52:00 PM 16.4477 -82.4641 138° Southeast  Level Estimated
Fri 11:53:00 PM 16.3505 -82.3717 138° Southeast  Level Estimated
Fri 11:54:00 PM 16.2533 -82.2795 138° Southeast  Level Estimated
Fri 11:55:00 PM 16.1560 -82.1874 138° Southeast  Level Estimated
Fri 11:56:00 PM 16.0587 -82.0954 138° Southeast  Level Estimated
Fri 11:57:00 PM 15.9613 -82.0034 138° Southeast  Level Estimated
Fri 11:58:00 PM 15.8639 -81.9115 138° Southeast  Level Estimated
Fri 11:59:00 PM 15.7665 -81.8198 138° Southeast  Level Estimated
Sat 12:00:00 AM 15.6690 -81.7281 138° Southeast  Level Estimated
Sat 12:01:00 AM 15.5715 -81.6365 138° Southeast  Level Estimated
Sat 12:02:00 AM 15.4740 -81.5450 138° Southeast  Level Estimated
Sat 12:03:00 AM 15.3764 -81.4535 138° Southeast  Level Estimated
Sat 12:04:00 AM 15.2787 -81.3622 138° Southeast  Level Estimated
Sat 12:05:00 AM 15.1811 -81.2709 138° Southeast  Level Estimated
Sat 12:06:00 AM 15.0834 -81.1798 138° Southeast  Level Estimated
Sat 12:07:00 AM 14.9856 -81.0887 138° Southeast  Level Estimated
Sat 12:08:00 AM 14.8879 -80.9977 138° Southeast  Level Estimated
Sat 12:09:00 AM 14.7901 -80.9068 138° Southeast  Level Estimated
Sat 12:10:00 AM 14.6922 -80.8159 138° Southeast  Level Estimated
Sat 12:11:00 AM 14.5943 -80.7252 138° Southeast  Level Estimated
Sat 12:12:00 AM 14.4964 -80.6345 138° Southeast  Level Estimated
Sat 12:13:00 AM 14.3985 -80.5439 138° Southeast  Level Estimated
Sat 12:14:00 AM 14.3005 -80.4533 138° Southeast  Level Estimated
Sat 12:15:00 AM 14.2025 -80.3629 138° Southeast  Level Estimated
Sat 12:16:00 AM 14.1044 -80.2726 138° Southeast  Level Estimated
Sat 12:17:00 AM 14.0063 -80.1823 138° Southeast  Level Estimated
Sat 12:18:00 AM 13.9082 -80.0921 138° Southeast  Level Estimated
Sat 12:19:00 AM 13.8101 -80.0019 138° Southeast  Level Estimated
Sat 12:20:00 AM 13.7119 -79.9119 138° Southeast  Level Estimated
Sat 12:21:00 AM 13.6137 -79.8219 138° Southeast  Level Estimated
Sat 12:22:00 AM 13.5154 -79.7320 138° Southeast  Level Estimated
Sat 12:23:00 AM 13.4171 -79.6422 138° Southeast  Level Estimated
Sat 12:24:00 AM 13.3188 -79.5524 138° Southeast  Level Estimated
Sat 12:25:00 AM 13.2205 -79.4627 138° Southeast  Level Estimated
Sat 12:26:00 AM 13.1221 -79.3731 138° Southeast  Level Estimated
Sat 12:27:00 AM 13.0237 -79.2836 138° Southeast  Level Estimated
Sat 12:28:00 AM 12.9252 -79.1941 138° Southeast  Level Estimated
Sat 12:29:00 AM 12.8268 -79.1047 138° Southeast  Level Estimated
Sat 12:30:00 AM 12.7283 -79.0154 138° Southeast  Level Estimated
Sat 12:31:00 AM 12.6297 -78.9261 139° Southeast  Level Estimated
Sat 12:32:00 AM 12.5312 -78.8369 139° Southeast  Level Estimated
Sat 12:33:00 AM 12.4326 -78.7478 139° Southeast  Level Estimated
Sat 12:34:00 AM 12.3340 -78.6588 139° Southeast  Level Estimated
Sat 12:35:00 AM 12.2353 -78.5698 139° Southeast  Level Estimated
Sat 12:36:00 AM 12.1367 -78.4809 139° Southeast  Level Estimated
Sat 12:37:00 AM 12.0379 -78.3920 139° Southeast  Level Estimated
Sat 12:37:48 AM 11.4760 -77.9030 139° Southeast 490 564 35,000  Level FlightAware ADS-B
Sat 12:38:00 AM 11.9392 -78.3032 139° Southeast  Level Estimated
Sat 12:38:25 AM 11.4170 -77.8470 137° Southeast 489 563 35,000  Level FlightAware ADS-B
Sat 12:39:05 AM 11.3470 -77.7810 137° Southeast 488 562 35,000  Level FlightAware ADS-B
Sat 12:39:45 AM 11.2820 -77.7200 137° Southeast 488 562 35,000  Level FlightAware ADS-B
Sat 12:40:25 AM 11.2270 -77.6660 136° Southeast 488 562 35,000  Level FlightAware ADS-B
Sat 12:41:46 AM 11.0820 -77.5320 138° Southeast 35,000  Level FlightAware ADS-B
Sat 12:42:26 AM 11.0090 -77.4640 138° Southeast 490 564 35,000  Level FlightAware ADS-B
Sat 12:43:19 AM 10.9260 -77.3840 137° Southeast 488 562 35,000  Level FlightAware ADS-B
Sat 12:44:07 AM 10.8370 -77.3030 138° Southeast 486 559 35,000  Level FlightAware ADS-B
Sat 12:44:43 AM 10.7790 -77.2490 138° Southeast 486 559 35,000  Level FlightAware ADS-B
Sat 12:45:24 AM 10.7240 -77.1950 136° Southeast 488 562 35,000  Level FlightAware ADS-B
Sat 12:46:01 AM 10.6730 -77.1450 136° Southeast 488 562 35,000  Level FlightAware ADS-B
Sat 12:46:48 AM 10.5700 -77.0540 139° Southeast 488 562 35,000  Level FlightAware ADS-B
Sat 12:47:40 AM 10.4790 -76.9700 138° Southeast 493 567 35,000  Level FlightAware ADS-B
Sat 12:48:19 AM 10.4130 -76.9080 137° Southeast 488 562 35,000  Level FlightAware ADS-B
Sat 12:48:59 AM 10.3460 -76.8460 138° Southeast 487 560 35,000  Level FlightAware ADS-B
Sat 12:49:40 AM 10.2770 -76.7820 138° Southeast 486 559 35,000  Level FlightAware ADS-B
Sat 12:50:25 AM 10.2000 -76.7110 138° Southeast 486 559 35,000  Level FlightAware ADS-B
Sat 12:51:04 AM 10.1410 -76.6550 137° Southeast 486 559 35,000  Level FlightAware ADS-B
Sat 12:51:51 AM 10.0560 -76.5770 138° Southeast 484 557 35,000  Level FlightAware ADS-B
Sat 12:52:25 AM 10.0070 -76.5310 137° Southeast 490 564 35,000  Level FlightAware ADS-B
Sat 12:53:05 AM 9.9330 -76.4630 138° Southeast 490 564 35,000  Level FlightAware ADS-B
Sat 12:53:52 AM 9.8560 -76.3920 138° Southeast 483 556 35,000  Level FlightAware ADS-B
Sat 12:54:40 AM 9.7740 -76.3160 138° Southeast 488 562 35,000  Level FlightAware ADS-B
Sat 12:55:15 AM 9.7140 -76.2610 138° Southeast 488 562 35,000  Level FlightAware ADS-B
Sat 12:55:55 AM 9.6500 -76.2020 138° Southeast 488 562 35,000  Level FlightAware ADS-B
Sat 12:56:40 AM 9.5730 -76.1310 138° Southeast 488 562 35,000  Level FlightAware ADS-B
Sat 12:57:25 AM 9.4980 -76.0610 137° Southeast 488 562 35,000  Level FlightAware ADS-B
Sat 12:58:20 AM 9.4060 -75.9760 138° Southeast 489 563 35,000  Level FlightAware ADS-B
Sat 12:59:10 AM 9.3230 -75.9000 138° Southeast 489 563 35,000  Level FlightAware ADS-B
Sat 12:59:55 AM 9.2520 -75.8350 138° Southeast 488 562 35,000  Level FlightAware ADS-B
Sat 01:00:35 AM 9.1800 -75.7690 138° Southeast 487 560 35,000  Level FlightAware ADS-B
Sat 01:01:35 AM 9.0860 -75.6820 138° Southeast 487 560 35,000  Level FlightAware ADS-B
Sat 01:02:14 AM 9.0310 -75.6300 137° Southeast 487 560 35,000  Level FlightAware ADS-B
Sat 01:03:18 AM 8.9190 -75.5290 138° Southeast 483 556 35,000  Level FlightAware ADS-B
Sat 01:04:40 AM 8.7750 -75.3960 138° Southeast 483 556 35,000  Level FlightAware ADS-B
Sat 01:05:40 AM 8.6760 -75.3060 138° Southeast 483 556 35,000  Level FlightAware ADS-B
Sat 01:06:25 AM 8.6040 -75.2400 138° Southeast 481 554 35,000  Level FlightAware ADS-B
Sat 01:07:05 AM 8.5330 -75.1750 138° Southeast 480 552 35,000  Level FlightAware ADS-B
Sat 01:07:45 AM 8.4670 -75.1150 138° Southeast 479 551 35,000  Level FlightAware ADS-B
Sat 01:08:25 AM 8.4020 -75.0550 138° Southeast 476 548 35,000  Level FlightAware ADS-B
Sat 01:09:05 AM 8.3360 -74.9940 138° Southeast 475 547 35,000  Level FlightAware ADS-B
Sat 01:09:45 AM 8.2710 -74.9350 138° Southeast 474 545 35,000  Level FlightAware ADS-B
Sat 01:10:25 AM 8.2070 -74.8770 138° Southeast 474 545 35,000  Level FlightAware ADS-B
Sat 01:11:21 AM 8.1210 -74.7980 138° Southeast 474 545 35,000  Level FlightAware ADS-B
Sat 01:12:00 AM 8.0520 -74.7350 138° Southeast 474 545 35,000  Level FlightAware ADS-B
Sat 01:12:40 AM 7.9850 -74.6750 138° Southeast 473 544 35,000  Level FlightAware ADS-B
Sat 01:13:25 AM 7.9130 -74.6080 137° Southeast 474 545 35,000  Level FlightAware ADS-B
Sat 01:14:05 AM 7.8470 -74.5490 138° Southeast 475 547 35,000  Level FlightAware ADS-B
Sat 01:14:45 AM 7.7820 -74.4900 138° Southeast 474 545 35,000  Level FlightAware ADS-B
Sat 01:15:25 AM 7.7170 -74.4300 138° Southeast 474 545 35,000  Level FlightAware ADS-B
Sat 01:16:05 AM 7.6540 -74.3730 138° Southeast 474 545 35,000  Level FlightAware ADS-B
Sat 01:16:50 AM 7.5790 -74.3040 138° Southeast 475 547 35,000  Level FlightAware ADS-B
Sat 01:17:30 AM 7.5130 -74.2450 138° Southeast 476 548 35,000  Level FlightAware ADS-B
Sat 01:18:15 AM 7.4390 -74.1770 138° Southeast 478 550 35,000  Level FlightAware ADS-B
Sat 01:18:55 AM 7.3740 -74.1190 138° Southeast 479 551 35,000  Level FlightAware ADS-B
Sat 01:19:35 AM 7.3070 -74.0580 138° Southeast 479 551 35,000  Level FlightAware ADS-B
Sat 01:20:49 AM 7.1970 -73.9580 138° Southeast 478 550 35,000  Level FlightAware ADS-B
Sat 01:21:25 AM 7.1260 -73.8940 138° Southeast 479 551 35,000  Level FlightAware ADS-B
Sat 01:22:20 AM 7.0350 -73.8140 139° Southeast 478 550 35,000  Level FlightAware ADS-B
Sat 01:23:05 AM 6.9510 -73.7630 149° Southeast 476 548 35,000  Level FlightAware ADS-B
Sat 01:23:50 AM 6.8620 -73.7150 152° Southeast 475 547 35,000  Level FlightAware ADS-B
Sat 01:24:30 AM 6.7840 -73.6730 152° Southeast 475 547 35,000  Level FlightAware ADS-B
Sat 01:25:14 AM 6.6960 -73.6280 153° Southeast 476 548 35,000  Level FlightAware ADS-B
Sat 01:25:58 AM 6.6070 -73.5920 158° South 476 548 35,000  Level FlightAware ADS-B
Sat 01:26:38 AM 6.5280 -73.5530 154° Southeast 477 549 35,000  Level FlightAware ADS-B
Sat 01:27:22 AM 6.4420 -73.5070 152° Southeast 477 549 35,000  Level FlightAware ADS-B
Sat 01:28:02 AM 6.3640 -73.4650 152° Southeast 476 548 35,000  Level FlightAware ADS-B
Sat 01:28:42 AM 6.2860 -73.4230 152° Southeast 476 548 35,000  Level FlightAware ADS-B
Sat 01:29:26 AM 6.2000 -73.3760 151° Southeast 475 547 35,000  Level FlightAware ADS-B
Sat 01:30:10 AM 6.1140 -73.3300 152° Southeast 476 548 35,000  Level FlightAware ADS-B
Sat 01:30:51 AM 6.0470 -73.2930 151° Southeast 476 548 35,000  Level FlightAware ADS-B
Sat 01:31:27 AM 5.9880 -73.2600 151° Southeast 476 548 35,000  Level FlightAware ADS-B
Sat 01:32:01 AM 5.9320 -73.2290 151° Southeast 476 548 35,000  Level FlightAware ADS-B
Sat 01:32:47 AM 5.8570 -73.1870 151° Southeast 476 548 35,000  Level FlightAware ADS-B
Sat 01:33:24 AM 5.7960 -73.1530 151° Southeast 476 548 35,000  Level FlightAware ADS-B
Sat 01:34:14 AM 5.6370 -73.0730 153° Southeast 478 550 35,000  Level FlightAware ADS-B
Sat 01:34:56 AM 5.5550 -73.0290 152° Southeast 479 551 35,000  Level FlightAware ADS-B
Sat 01:35:34 AM 5.4810 -72.9890 152° Southeast 480 552 35,000  Level FlightAware ADS-B
Sat 01:36:10 AM 5.4100 -72.9510 152° Southeast 479 551 35,000  Level FlightAware ADS-B
Sat 01:36:52 AM 5.3290 -72.9070 152° Southeast 480 552 35,000  Level FlightAware ADS-B
Sat 01:37:34 AM 5.2450 -72.8620 152° Southeast 481 554 35,000  Level FlightAware ADS-B
Sat 01:38:12 AM 5.1700 -72.8220 152° Southeast 481 554 35,000  Level FlightAware ADS-B
Sat 01:38:51 AM 5.0950 -72.7810 151° Southeast 478 550 35,000  Level FlightAware ADS-B
Sat 01:39:31 AM 5.0290 -72.7450 151° Southeast 478 550 35,000  Level FlightAware ADS-B
Sat 01:40:20 AM 4.9480 -72.7000 151° Southeast 478 550 35,000  Level FlightAware ADS-B
Sat 01:40:56 AM 4.8890 -72.6670 151° Southeast 478 550 35,000  Level FlightAware ADS-B
Sat 01:41:44 AM 4.8100 -72.6230 151° Southeast 478 550 35,000  Level FlightAware ADS-B
Sat 01:42:21 AM 4.7500 -72.5890 151° Southeast 478 550 35,000  Level FlightAware ADS-B
Sat 01:42:58 AM 4.6890 -72.5560 152° Southeast 478 550 35,000  Level FlightAware ADS-B
Sat 01:43:34 AM 4.6290 -72.5230 151° Southeast 478 550 35,000  Level FlightAware ADS-B
Sat 01:44:21 AM 4.5520 -72.4800 151° Southeast 478 550 35,000  Level FlightAware ADS-B
Sat 01:44:57 AM 4.4930 -72.4470 151° Southeast 478 550 35,000  Level FlightAware ADS-B
Sat 01:45:33 AM 4.4340 -72.4140 151° Southeast 478 550 35,000  Level FlightAware ADS-B
Sat 01:46:22 AM 4.3530 -72.3690 151° Southeast 478 550 35,000  Level FlightAware ADS-B
Sat 01:46:58 AM 4.2940 -72.3360 151° Southeast 478 550 35,000  Level FlightAware ADS-B
Sat 01:47:34 AM 4.2350 -72.3030 151° Southeast 478 550 35,000  Level FlightAware ADS-B
Sat 01:48:22 AM 4.1560 -72.2590 151° Southeast 478 550 35,000 Level FlightAware ADS-B
Sat 01:50:00 AM 3.9692 -72.1536 151° Southeast  Level FlightAware Approximate
Sat 01:51:00 AM 3.8597 -72.0812 145° Southeast  Level FlightAware Approximate
Sat 01:52:00 AM 3.7524 -72.0053 145° Southeast  Level FlightAware Approximate
Sat 01:53:00 AM 3.6452 -71.9294 145° Southeast  Level FlightAware Approximate
Sat 01:54:00 AM 3.5380 -71.8536 145° Southeast  Level FlightAware Approximate
Sat 01:55:00 AM 3.4307 -71.7777 145° Southeast  Level FlightAware Approximate
Sat 01:56:00 AM 3.3235 -71.7019 145° Southeast  Level FlightAware Approximate
Sat 01:57:00 AM 3.2162 -71.6262 145° Southeast  Level FlightAware Approximate
Sat 01:58:00 AM 3.1088 -71.5506 145° Southeast  Level FlightAware Approximate
Sat 01:59:00 AM 3.0014 -71.4751 145° Southeast  Level FlightAware Approximate
Sat 02:00:00 AM 2.8940 -71.3995 145° Southeast  Level FlightAware Approximate
Sat 02:01:00 AM 2.7866 -71.3240 145° Southeast  Level FlightAware Approximate
Sat 02:02:00 AM 2.6791 -71.2484 145° Southeast  Level FlightAware Approximate
Sat 02:03:00 AM 2.5717 -71.1729 145° Southeast  Level FlightAware Approximate
Sat 02:04:00 AM 2.4643 -71.0974 145° Southeast  Level FlightAware Approximate
Sat 02:05:00 AM 2.3568 -71.0219 145° Southeast  Level FlightAware Approximate
Sat 02:06:00 AM 2.2494 -70.9465 145° Southeast  Level FlightAware Approximate
Sat 02:07:00 AM 2.1419 -70.8710 145° Southeast  Level FlightAware Approximate
Sat 02:08:00 AM 2.0345 -70.7956 145° Southeast  Level FlightAware Approximate
Sat 02:09:00 AM 1.9270 -70.7201 145° Southeast  Level FlightAware Approximate
Sat 02:10:00 AM 1.8196 -70.6447 145° Southeast  Level FlightAware Approximate
Sat 02:11:00 AM 1.7121 -70.5693 145° Southeast  Level FlightAware Approximate
Sat 02:12:00 AM 1.6047 -70.4939 145° Southeast  Level FlightAware Approximate
Sat 02:13:00 AM 1.4972 -70.4185 145° Southeast  Level FlightAware Approximate
Sat 02:14:00 AM 1.3898 -70.3431 145° Southeast  Level FlightAware Approximate
Sat 02:15:00 AM 1.2823 -70.2677 145° Southeast  Level FlightAware Approximate
Sat 02:16:00 AM 1.1799 -70.1858 138° Southeast  Level FlightAware Approximate
Sat 02:17:00 AM 1.0819 -70.0985 138° Southeast  Level FlightAware Approximate
Sat 02:18:00 AM 0.9839 -70.0112 138° Southeast  Level FlightAware Approximate
Sat 02:19:00 AM 0.8858 -69.9239 138° Southeast  Level FlightAware Approximate
Sat 02:20:00 AM 0.7878 -69.8366 138° Southeast  Level FlightAware Approximate
Sat 02:21:00 AM 0.6897 -69.7494 138° Southeast  Level FlightAware Approximate
Sat 02:22:00 AM 0.5917 -69.6621 138° Southeast  Level FlightAware Approximate
Sat 02:23:00 AM 0.4936 -69.5748 138° Southeast  Level FlightAware Approximate
Sat 02:24:00 AM 0.3955 -69.4875 138° Southeast  Level FlightAware Approximate
Sat 02:25:00 AM 0.2975 -69.4003 138° Southeast  Level FlightAware Approximate
Sat 02:26:00 AM 0.1994 -69.3130 138° Southeast  Level FlightAware Approximate
Sat 02:27:00 AM 0.1014 -69.2257 138° Southeast  Level FlightAware Approximate
Sat 02:28:00 AM 0.0033 -69.1385 138° Southeast  Level FlightAware Approximate
Sat 02:29:00 AM -0.0948 -69.0512 138° Southeast  Level FlightAware Approximate
Sat 02:30:00 AM -0.1928 -68.9640 138° Southeast  Level FlightAware Approximate
Sat 02:31:00 AM -0.2909 -68.8767 138° Southeast  Level FlightAware Approximate
Sat 02:32:00 AM -0.3889 -68.7894 138° Southeast  Level FlightAware Approximate
Sat 02:33:00 AM -0.4870 -68.7021 138° Southeast  Level FlightAware Approximate
Sat 02:34:00 AM -0.5850 -68.6149 138° Southeast  Level FlightAware Approximate
Sat 02:35:00 AM -0.6831 -68.5276 138° Southeast  Level FlightAware Approximate
Sat 02:36:00 AM -0.7811 -68.4403 138° Southeast  Level FlightAware Approximate
Sat 02:37:00 AM -0.8792 -68.3531 138° Southeast  Level FlightAware Approximate
Sat 02:38:00 AM -0.9772 -68.2658 138° Southeast  Level FlightAware Approximate
Sat 02:39:00 AM -1.0753 -68.1785 138° Southeast  Level FlightAware Approximate
Sat 02:40:00 AM -1.1733 -68.0912 138° Southeast  Level FlightAware Approximate
Sat 02:41:00 AM -1.2714 -68.0039 138° Southeast  Level FlightAware Approximate
Sat 02:42:00 AM -1.3694 -67.9166 138° Southeast  Level FlightAware Approximate
Sat 02:43:00 AM -1.4675 -67.8292 138° Southeast  Level FlightAware Approximate
Sat 02:44:00 AM -1.5655 -67.7419 138° Southeast  Level FlightAware Approximate
Sat 02:45:00 AM -1.6635 -67.6546 138° Southeast  Level FlightAware Approximate
Sat 02:46:00 AM -1.7615 -67.5673 138° Southeast  Level FlightAware Approximate
Sat 02:47:00 AM -1.8595 -67.4799 138° Southeast  Level FlightAware Approximate
Sat 02:48:00 AM -1.9576 -67.3925 138° Southeast  Level FlightAware Approximate
Sat 02:49:00 AM -2.0556 -67.3052 138° Southeast  Level FlightAware Approximate
Sat 02:50:00 AM -2.1536 -67.2178 138° Southeast  Level FlightAware Approximate
Sat 02:51:00 AM -2.2516 -67.1304 138° Southeast  Level FlightAware Approximate
Sat 02:52:00 AM -2.3496 -67.0430 138° Southeast  Level FlightAware Approximate
Sat 02:53:00 AM -2.4476 -66.9556 138° Southeast  Level FlightAware Approximate
Sat 02:54:00 AM -2.5456 -66.8681 138° Southeast  Level FlightAware Approximate
Sat 02:55:00 AM -2.6435 -66.7807 138° Southeast  Level FlightAware Approximate
Sat 02:56:00 AM -2.7415 -66.6933 138° Southeast  Level FlightAware Approximate
Sat 02:57:00 AM -2.8395 -66.6058 138° Southeast  Level FlightAware Approximate
Sat 02:58:00 AM -2.9374 -66.5183 138° Southeast  Level FlightAware Approximate
Sat 02:59:00 AM -3.0354 -66.4308 138° Southeast  Level FlightAware Approximate
Sat 03:00:00 AM -3.1333 -66.3433 138° Southeast  Level FlightAware Approximate
Sat 03:01:00 AM -3.2313 -66.2557 138° Southeast  Level FlightAware Approximate
Sat 03:02:00 AM -3.3292 -66.1682 138° Southeast  Level FlightAware Approximate
Sat 03:03:00 AM -3.4271 -66.0806 138° Southeast  Level FlightAware Approximate
Sat 03:04:00 AM -3.5250 -65.9930 138° Southeast  Level FlightAware Approximate
Sat 03:05:00 AM -3.6230 -65.9054 138° Southeast  Level FlightAware Approximate
Sat 03:06:00 AM -3.7208 -65.8178 138° Southeast  Level FlightAware Approximate
Sat 03:07:00 AM -3.8187 -65.7302 138° Southeast  Level FlightAware Approximate
Sat 03:08:00 AM -3.9166 -65.6425 138° Southeast  Level FlightAware Approximate
Sat 03:09:00 AM -4.0145 -65.5548 138° Southeast  Level FlightAware Approximate
Sat 03:10:00 AM -4.1123 -65.4671 138° Southeast  Level FlightAware Approximate
Sat 03:11:00 AM -4.2102 -65.3794 138° Southeast  Level FlightAware Approximate
Sat 03:12:00 AM -4.3080 -65.2916 138° Southeast  Level FlightAware Approximate
Sat 03:13:00 AM -4.4059 -65.2039 138° Southeast  Level FlightAware Approximate
Sat 03:14:00 AM -4.5037 -65.1161 138° Southeast  Level FlightAware Approximate
Sat 03:15:00 AM -4.6015 -65.0283 138° Southeast  Level FlightAware Approximate
Sat 03:16:00 AM -4.6993 -64.9404 138° Southeast  Level FlightAware Approximate
Sat 03:17:00 AM -4.7971 -64.8526 138° Southeast  Level FlightAware Approximate
Sat 03:18:00 AM -4.8949 -64.7647 138° Southeast  Level FlightAware Approximate
Sat 03:19:00 AM -4.9926 -64.6768 138° Southeast  Level FlightAware Approximate
Sat 03:20:00 AM -5.0904 -64.5888 138° Southeast  Level FlightAware Approximate
Sat 03:21:00 AM -5.1881 -64.5008 138° Southeast  Level FlightAware Approximate
Sat 03:22:00 AM -5.2859 -64.4128 138° Southeast  Level FlightAware Approximate
Sat 03:23:00 AM -5.3836 -64.3248 138° Southeast  Level FlightAware Approximate
Sat 03:24:00 AM -5.4813 -64.2368 138° Southeast  Level FlightAware Approximate
Sat 03:25:00 AM -5.5790 -64.1487 138° Southeast  Level FlightAware Approximate
Sat 03:26:00 AM -5.6767 -64.0606 138° Southeast  Level FlightAware Approximate
Sat 03:27:00 AM -5.7743 -63.9724 138° Southeast  Level FlightAware Approximate
Sat 03:28:00 AM -5.8720 -63.8843 138° Southeast  Level FlightAware Approximate
Sat 03:29:00 AM -5.9696 -63.7961 138° Southeast  Level FlightAware Approximate
Sat 03:30:00 AM -6.0673 -63.7078 138° Southeast  Level FlightAware Approximate
Sat 03:31:00 AM -6.1649 -63.6196 138° Southeast  Level FlightAware Approximate
Sat 03:32:00 AM -6.2625 -63.5313 138° Southeast  Level FlightAware Approximate
Sat 03:33:00 AM -6.3601 -63.4429 138° Southeast  Level FlightAware Approximate
Sat 03:34:00 AM -6.4576 -63.3546 138° Southeast  Level FlightAware Approximate
Sat 03:35:00 AM -6.5552 -63.2662 138° Southeast  Level FlightAware Approximate
Sat 03:36:00 AM -6.6527 -63.1777 138° Southeast  Level FlightAware Approximate
Sat 03:37:00 AM -6.7502 -63.0893 138° Southeast  Level FlightAware Approximate
Sat 03:38:00 AM -6.8477 -63.0008 138° Southeast  Level FlightAware Approximate
Sat 03:39:00 AM -6.9452 -62.9122 138° Southeast  Level FlightAware Approximate
Sat 03:40:00 AM -7.0427 -62.8237 138° Southeast  Level FlightAware Approximate
Sat 03:41:00 AM -7.1402 -62.7351 138° Southeast  Level FlightAware Approximate
Sat 03:42:00 AM -7.2376 -62.6464 138° Southeast  Level FlightAware Approximate
Sat 03:43:00 AM -7.3350 -62.5577 138° Southeast  Level FlightAware Approximate
Sat 03:44:00 AM -7.4324 -62.4690 138° Southeast  Level FlightAware Approximate
Sat 03:45:00 AM -7.5298 -62.3802 138° Southeast  Level FlightAware Approximate
Sat 03:46:00 AM -7.6272 -62.2914 138° Southeast  Level FlightAware Approximate
Sat 03:47:00 AM -7.7245 -62.2025 138° Southeast  Level FlightAware Approximate
Sat 03:48:00 AM -7.8218 -62.1137 138° Southeast  Level FlightAware Approximate
Sat 03:49:00 AM -7.9192 -62.0247 138° Southeast  Level FlightAware Approximate
Sat 03:50:00 AM -8.0164 -61.9358 138° Southeast  Level FlightAware Approximate
Sat 03:51:00 AM -8.1137 -61.8467 138° Southeast  Level FlightAware Approximate
Sat 03:52:00 AM -8.2110 -61.7577 138° Southeast  Level FlightAware Approximate
Sat 03:53:00 AM -8.3082 -61.6686 138° Southeast  Level FlightAware Approximate
Sat 03:54:00 AM -8.4058 -61.5791 138° Southeast  Level FlightAware Approximate
Sat 03:55:00 AM -8.5033 -61.4896 138° Southeast  Level FlightAware Approximate
Sat 03:56:00 AM -8.6009 -61.4001 138° Southeast  Level FlightAware Approximate
Sat 03:57:00 AM -8.6983 -61.3105 138° Southeast  Level FlightAware Approximate
Sat 03:58:00 AM -8.7958 -61.2208 138° Southeast  Level FlightAware Approximate
Sat 03:59:00 AM -8.8933 -61.1311 138° Southeast  Level FlightAware Approximate
Sat 04:00:00 AM -8.9907 -61.0414 138° Southeast  Level FlightAware Approximate
Sat 04:01:00 AM -9.0881 -60.9516 138° Southeast  Level FlightAware Approximate
Sat 04:02:00 AM -9.1855 -60.8618 138° Southeast  Level FlightAware Approximate
Sat 04:03:00 AM -9.2829 -60.7719 138° Southeast  Level FlightAware Approximate
Sat 04:04:00 AM -9.3802 -60.6819 138° Southeast  Level FlightAware Approximate
Sat 04:05:00 AM -9.4776 -60.5919 138° Southeast  Level FlightAware Approximate
Sat 04:06:00 AM -9.5749 -60.5019 138° Southeast  Level FlightAware Approximate
Sat 04:07:00 AM -9.6721 -60.4118 138° Southeast  Level FlightAware Approximate
Sat 04:08:00 AM -9.7694 -60.3217 138° Southeast  Level FlightAware Approximate
Sat 04:09:00 AM -9.8666 -60.2315 138° Southeast  Level FlightAware Approximate
Sat 04:10:00 AM -9.9638 -60.1412 138° Southeast  Level FlightAware Approximate
Sat 04:11:00 AM -10.0610 -60.0509 138° Southeast  Level FlightAware Approximate
Sat 04:12:00 AM -10.1582 -59.9606 138° Southeast  Level FlightAware Approximate
Sat 04:13:00 AM -10.2553 -59.8702 138° Southeast  Level FlightAware Approximate
Sat 04:14:00 AM -10.3524 -59.7797 138° Southeast  Level FlightAware Approximate
Sat 04:15:00 AM -10.4495 -59.6892 137° Southeast  Level FlightAware Approximate
Sat 04:16:00 AM -10.5466 -59.5986 137° Southeast  Level FlightAware Approximate
Sat 04:17:00 AM -10.6436 -59.5079 137° Southeast  Level FlightAware Approximate
Sat 04:18:00 AM -10.7406 -59.4173 137° Southeast  Level FlightAware Approximate
Sat 04:19:00 AM -10.8376 -59.3265 137° Southeast  Level FlightAware Approximate
Sat 04:20:00 AM -10.9345 -59.2357 137° Southeast  Level FlightAware Approximate
Sat 04:21:00 AM -11.0315 -59.1448 137° Southeast  Level FlightAware Approximate
Sat 04:22:00 AM -11.1284 -59.0539 137° Southeast  Level FlightAware Approximate
Sat 04:23:00 AM -11.2252 -58.9629 137° Southeast  Level FlightAware Approximate
Sat 04:24:00 AM -11.3221 -58.8718 137° Southeast  Level FlightAware Approximate
Sat 04:25:00 AM -11.4189 -58.7807 137° Southeast  Level FlightAware Approximate
Sat 04:26:00 AM -11.5157 -58.6896 137° Southeast  Level FlightAware Approximate
Sat 04:27:00 AM -11.6124 -58.5983 137° Southeast  Level FlightAware Approximate
Sat 04:28:00 AM -11.7092 -58.5070 137° Southeast  Level FlightAware Approximate
Sat 04:29:00 AM -11.8059 -58.4156 137° Southeast  Level FlightAware Approximate
Sat 04:30:00 AM -11.9025 -58.3242 137° Southeast  Level FlightAware Approximate
Sat 04:31:00 AM -11.9992 -58.2327 137° Southeast  Level FlightAware Approximate
Sat 04:32:00 AM -12.0958 -58.1412 137° Southeast  Level FlightAware Approximate
Sat 04:33:00 AM -12.1924 -58.0495 137° Southeast  Level FlightAware Approximate
Sat 04:34:00 AM -12.2889 -57.9578 137° Southeast  Level FlightAware Approximate
Sat 04:35:00 AM -12.3854 -57.8661 137° Southeast  Level FlightAware Approximate
Sat 04:36:00 AM -12.4819 -57.7743 137° Southeast  Level FlightAware Approximate
Sat 04:37:00 AM -12.5784 -57.6824 137° Southeast  Level FlightAware Approximate
Sat 04:38:00 AM -12.6748 -57.5904 137° Southeast  Level FlightAware Approximate
Sat 04:39:00 AM -12.7712 -57.4983 137° Southeast  Level FlightAware Approximate
Sat 04:40:00 AM -12.8676 -57.4062 137° Southeast  Level FlightAware Approximate
Sat 04:41:00 AM -12.9639 -57.3140 137° Southeast  Level FlightAware Approximate
Sat 04:42:00 AM -13.0602 -57.2218 137° Southeast  Level FlightAware Approximate
Sat 04:43:00 AM -13.1565 -57.1295 137° Southeast  Level FlightAware Approximate
Sat 04:44:00 AM -13.2527 -57.0371 137° Southeast  Level FlightAware Approximate
Sat 04:45:00 AM -13.3489 -56.9446 137° Southeast  Level FlightAware Approximate
Sat 04:46:00 AM -13.4451 -56.8521 137° Southeast  Level FlightAware Approximate
Sat 04:47:00 AM -13.5412 -56.7595 137° Southeast  Level FlightAware Approximate
Sat 04:48:00 AM -13.6373 -56.6668 137° Southeast  Level FlightAware Approximate
Sat 04:49:00 AM -13.7334 -56.5740 137° Southeast  Level FlightAware Approximate
Sat 04:50:00 AM -13.8294 -56.4812 137° Southeast  Level FlightAware Approximate
Sat 04:51:00 AM -13.9254 -56.3883 137° Southeast  Level FlightAware Approximate
Sat 04:52:00 AM -14.0214 -56.2953 137° Southeast  Level FlightAware Approximate
Sat 04:53:00 AM -14.1173 -56.2022 137° Southeast  Level FlightAware Approximate
Sat 04:54:00 AM -14.2132 -56.1091 137° Southeast  Level FlightAware Approximate
Sat 04:55:00 AM -14.3091 -56.0158 137° Southeast  Level FlightAware Approximate
Sat 04:56:00 AM -14.4049 -55.9225 137° Southeast  Level FlightAware Approximate
Sat 04:57:00 AM -14.5007 -55.8291 137° Southeast  Level FlightAware Approximate
Sat 04:58:00 AM -14.5964 -55.7356 137° Southeast  Level FlightAware Approximate
Sat 04:59:00 AM -14.6921 -55.6421 137° Southeast  Level FlightAware Approximate
Sat 05:00:00 AM -14.7878 -55.5485 137° Southeast  Level FlightAware Approximate
Sat 05:01:00 AM -14.8834 -55.4548 137° Southeast  Level FlightAware Approximate
Sat 05:02:00 AM -14.9790 -55.3610 137° Southeast  Level FlightAware Approximate
Sat 05:03:00 AM -15.0746 -55.2671 137° Southeast  Level FlightAware Approximate
Sat 05:04:00 AM -15.1701 -55.1731 136° Southeast  Level FlightAware Approximate
Sat 05:05:00 AM -15.2656 -55.0790 136° Southeast  Level FlightAware Approximate
Sat 05:06:00 AM -15.3610 -54.9849 136° Southeast  Level FlightAware Approximate
Sat 05:07:00 AM -15.4564 -54.8907 136° Southeast  Level FlightAware Approximate
Sat 05:08:00 AM -15.5518 -54.7964 136° Southeast  Level FlightAware Approximate
Sat 05:09:00 AM -15.6471 -54.7020 136° Southeast  Level FlightAware Approximate
Sat 05:10:00 AM -15.7424 -54.6075 136° Southeast  Level FlightAware Approximate
Sat 05:11:00 AM -15.8376 -54.5129 136° Southeast  Level FlightAware Approximate
Sat 05:12:00 AM -15.9328 -54.4183 136° Southeast  Level FlightAware Approximate
Sat 05:13:00 AM -16.0280 -54.3235 136° Southeast  Level FlightAware Approximate
Sat 05:14:00 AM -16.1231 -54.2287 136° Southeast  Level FlightAware Approximate
Sat 05:15:00 AM -16.2181 -54.1337 136° Southeast  Level FlightAware Approximate
Sat 05:16:00 AM -16.3132 -54.0387 136° Southeast  Level FlightAware Approximate
Sat 05:17:00 AM -16.4082 -53.9436 136° Southeast  Level FlightAware Approximate
Sat 05:18:00 AM -16.5031 -53.8484 136° Southeast  Level FlightAware Approximate
Sat 05:19:00 AM -16.5980 -53.7531 136° Southeast  Level FlightAware Approximate
Sat 05:20:00 AM -16.6929 -53.6577 136° Southeast  Level FlightAware Approximate
Sat 05:21:00 AM -16.7877 -53.5622 136° Southeast  Level FlightAware Approximate
Sat 05:22:00 AM -16.8825 -53.4666 136° Southeast  Level FlightAware Approximate
Sat 05:23:00 AM -16.9772 -53.3709 136° Southeast  Level FlightAware Approximate
Sat 05:24:00 AM -17.0719 -53.2751 136° Southeast  Level FlightAware Approximate
Sat 05:25:00 AM -17.1665 -53.1792 136° Southeast  Level FlightAware Approximate
Sat 05:26:00 AM -17.2611 -53.0832 136° Southeast  Level FlightAware Approximate
Sat 05:27:00 AM -17.3556 -52.9872 136° Southeast  Level FlightAware Approximate
Sat 05:28:00 AM -17.4501 -52.8910 136° Southeast  Level FlightAware Approximate
Sat 05:29:00 AM -17.5446 -52.7947 136° Southeast  Level FlightAware Approximate
Sat 05:30:00 AM -17.6390 -52.6983 136° Southeast  Level FlightAware Approximate
Sat 05:31:00 AM -17.7334 -52.6018 136° Southeast  Level FlightAware Approximate
Sat 05:32:00 AM -17.8277 -52.5053 136° Southeast  Level FlightAware Approximate
Sat 05:33:00 AM -17.9219 -52.4086 136° Southeast  Level FlightAware Approximate
Sat 05:34:00 AM -18.0161 -52.3118 136° Southeast  Level FlightAware Approximate
Sat 05:35:00 AM -18.1103 -52.2149 136° Southeast  Level FlightAware Approximate
Sat 05:36:00 AM -18.2044 -52.1179 136° Southeast  Level FlightAware Approximate
Sat 05:37:00 AM -18.2985 -52.0208 136° Southeast  Level FlightAware Approximate
Sat 05:38:00 AM -18.3925 -51.9236 136° Southeast  Level FlightAware Approximate
Sat 05:39:00 AM -18.4865 -51.8263 136° Southeast  Level FlightAware Approximate
Sat 05:40:00 AM -18.5804 -51.7289 135° Southeast  Level FlightAware Approximate
Sat 05:41:00 AM -18.6743 -51.6314 135° Southeast  Level FlightAware Approximate
Sat 05:42:00 AM -18.7681 -51.5338 135° Southeast  Level FlightAware Approximate
Sat 05:43:00 AM -18.8619 -51.4360 135° Southeast  Level FlightAware Approximate
Sat 05:44:00 AM -18.9556 -51.3382 135° Southeast  Level FlightAware Approximate
Sat 05:45:00 AM -19.0493 -51.2402 135° Southeast  Level FlightAware Approximate
Sat 05:46:00 AM -19.1429 -51.1421 135° Southeast  Level FlightAware Approximate
Sat 05:46:06 AM -18.9820 -50.7150 135° Southeast 480 552 37,000  Level FlightAware ADS-B
Sat 05:46:44 AM -19.0310 -50.6590 133° Southeast 480 552 37,000  Level FlightAware ADS-B
Sat 05:47:31 AM -19.1140 -50.5710 135° Southeast 480 552 37,000  Level FlightAware ADS-B
Sat 05:48:11 AM -19.1770 -50.5020 134° Southeast 481 554 37,000  Level FlightAware ADS-B
Sat 05:48:51 AM -19.2390 -50.4340 134° Southeast 482 555 37,000  Level FlightAware ADS-B
Sat 05:49:36 AM -19.3080 -50.3580 134° Southeast 482 555 37,000  Level FlightAware ADS-B
Sat 05:50:17 AM -19.3720 -50.2880 134° Southeast 482 555 37,000  Level FlightAware ADS-B
Sat 05:50:53 AM -19.4270 -50.2280 134° Southeast 483 556 37,000  Level FlightAware ADS-B
Sat 05:51:37 AM -19.4960 -50.1530 134° Southeast 484 557 37,000  Level FlightAware ADS-B
Sat 05:52:17 AM -19.5590 -50.0830 134° Southeast 485 558 37,000  Level FlightAware ADS-B
Sat 05:52:57 AM -19.6210 -50.0150 134° Southeast 485 558 37,000  Level FlightAware ADS-B
Sat 05:53:43 AM -19.6920 -49.9360 134° Southeast 485 558 37,000  Level FlightAware ADS-B
Sat 05:54:23 AM -19.7550 -49.8670 134° Southeast 486 559 37,000  Level FlightAware ADS-B
Sat 05:55:07 AM -19.8230 -49.7910 134° Southeast 486 559 37,000  Level FlightAware ADS-B
Sat 05:55:47 AM -19.8830 -49.7250 134° Southeast 486 559 37,000  Level FlightAware ADS-B
Sat 05:56:29 AM -19.9510 -49.6490 134° Southeast 487 560 37,000  Level FlightAware ADS-B
Sat 05:57:13 AM -20.0200 -49.5730 134° Southeast 487 560 37,000  Level FlightAware ADS-B
Sat 05:57:54 AM -20.0830 -49.5030 134° Southeast 488 562 37,000  Level FlightAware ADS-B
Sat 05:58:35 AM -20.1470 -49.4310 133° Southeast 488 562 37,000  Level FlightAware ADS-B
Sat 05:59:13 AM -20.2060 -49.3660 134° Southeast 488 562 37,000  Level FlightAware ADS-B
Sat 05:59:59 AM -20.2790 -49.2840 134° Southeast 489 563 37,000  Level FlightAware ADS-B
Sat 06:00:41 AM -20.3440 -49.2120 134° Southeast 489 563 37,000  Level FlightAware ADS-B
Sat 06:01:25 AM -20.4120 -49.1350 133° Southeast 489 563 37,000  Level FlightAware ADS-B
Sat 06:02:05 AM -20.4740 -49.0660 134° Southeast 490 564 37,000  Level FlightAware ADS-B
Sat 06:02:49 AM -20.5450 -48.9900 135° Southeast 489 563 37,000  Level FlightAware ADS-B
Sat 06:03:29 AM -20.6130 -48.9250 138° Southeast 489 563 37,000  Level FlightAware ADS-B
Sat 06:04:13 AM -20.6890 -48.8550 139° Southeast 489 563 37,000  Level FlightAware ADS-B
Sat 06:04:53 AM -20.7570 -48.7930 140° Southeast 490 564 37,000  Level FlightAware ADS-B
Sat 06:05:31 AM -20.8230 -48.7330 140° Southeast 490 564 37,000  Level FlightAware ADS-B
Sat 06:06:15 AM -20.8980 -48.6640 139° Southeast 490 564 37,000  Level FlightAware ADS-B
Sat 06:07:02 AM -20.9800 -48.5890 140° Southeast 490 564 37,000  Level FlightAware ADS-B
Sat 06:07:42 AM -21.0490 -48.5260 140° Southeast 491 565 37,000  Level FlightAware ADS-B
Sat 06:08:26 AM -21.1240 -48.4570 139° Southeast 491 565 37,000  Level FlightAware ADS-B
Sat 06:09:06 AM -21.1940 -48.3920 139° Southeast 492 566 37,000  Level FlightAware ADS-B
Sat 06:09:50 AM -21.2690 -48.3220 139° Southeast 492 566 37,000  Level FlightAware ADS-B
Sat 06:10:30 AM -21.3380 -48.2590 140° Southeast 492 566 37,000  Level FlightAware ADS-B
Sat 06:11:11 AM -21.4080 -48.1940 139° Southeast 494 568 37,000  Level FlightAware ADS-B
Sat 06:11:52 AM -21.4760 -48.1310 139° Southeast 494 568 37,000  Level FlightAware ADS-B
Sat 06:12:34 AM -21.5540 -48.0590 139° Southeast 495 570 37,000  Level FlightAware ADS-B
Sat 06:13:08 AM -21.6120 -48.0050 139° Southeast 495 570 37,000  Level FlightAware ADS-B
Sat 06:13:54 AM -21.6910 -47.9310 139° Southeast 495 570 37,000  Level FlightAware ADS-B
Sat 06:14:34 AM -21.7600 -47.8660 139° Southeast 496 571 37,000 -786 Level FlightAware ADS-B
Sat 06:15:18 AM -21.8330 -47.7980 139° Southeast 492 566 35,900 -1,952 Descending FlightAware ADS-B
Sat 06:15:57 AM -21.9020 -47.7330 139° Southeast 488 562 34,300 -2,769 Descending FlightAware ADS-B
Sat 06:16:36 AM -21.9720 -47.6680 139° Southeast 492 566 32,300 -3,247 Descending FlightAware ADS-B
Sat 06:17:22 AM -22.0490 -47.5960 139° Southeast 502 578 29,700 -2,581 Descending FlightAware ADS-B
Sat 06:18:02 AM -22.1180 -47.5310 139° Southeast 479 551 28,600 -1,421 Descending FlightAware ADS-B
Sat 06:18:38 AM -22.1770 -47.4760 139° Southeast 458 527 27,900 -1,520 Descending FlightAware ADS-B
Sat 06:19:17 AM -22.2380 -47.4190 139° Southeast 448 516 26,700 -1,941 Descending FlightAware ADS-B
Sat 06:19:46 AM -22.2860 -47.3730 138° Southeast 442 509 25,700 -1,808 Descending FlightAware ADS-B
Sat 06:20:30 AM -22.3520 -47.3100 139° Southeast 427 491 24,500 -1,733 Descending FlightAware ADS-B
Sat 06:21:16 AM -22.4200 -47.2460 139° Southeast 415 478 23,100 -1,744 Descending FlightAware ADS-B
Sat 06:21:56 AM -22.4770 -47.1930 139° Southeast 407 468 22,000 -1,800 Descending FlightAware ADS-B
Sat 06:22:36 AM -22.5310 -47.1420 139° Southeast 403 464 20,700 -1,500 Descending FlightAware ADS-B
Sat 06:23:20 AM -22.5990 -47.0890 144° Southeast 404 465 19,900 -1,482 Descending FlightAware ADS-B
Sat 06:24:01 AM -22.6720 -47.0570 158° South 397 457 18,600 -1,807 Descending FlightAware ADS-B
Sat 06:24:43 AM -22.7420 -47.0290 160° South 389 448 17,400 -1,744 Descending FlightAware ADS-B
Sat 06:25:27 AM -22.8170 -46.9970 159° South 381 438 16,100 -1,786 Descending FlightAware ADS-B
Sat 06:26:07 AM -22.8820 -46.9700 159° South 376 433 14,900 -1,429 Descending FlightAware ADS-B
Sat 06:26:51 AM -22.9500 -46.9410 159° South 349 402 14,100 -1,342 Descending FlightAware ADS-B
Sat 06:27:23 AM -22.9970 -46.9210 159° South 327 376 13,200 -1,846 Descending FlightAware ADS-B
Sat 06:28:09 AM -23.0600 -46.8950 159° South 306 352 11,700 -2,023 Descending FlightAware ADS-B
Sat 06:28:49 AM -23.1130 -46.8730 159° South 309 356 10,300 -1,853 Descending FlightAware ADS-B
Sat 06:29:17 AM -23.1510 -46.8560 158° South 313 360 9,600 -1,286 Descending FlightAware ADS-B
Sat 06:29:45 AM -23.1880 -46.8410 160° South 306 352 9,100 -1,227 Descending FlightAware ADS-B
Sat 06:30:01 AM -23.2100 -46.8310 157° South 303 349 8,700 -1,636 Descending FlightAware ADS-B
Sat 06:30:29 AM -23.2460 -46.8160 159° South 296 341 7,900 -1,500 Descending FlightAware ADS-B
Sat 06:30:57 AM -23.2800 -46.8020 159° South 273 314 7,300 -750 Descending FlightAware ADS-B
Sat 06:31:25 AM -23.3110 -46.7890 159° South 245 282 7,200 -346 Descending FlightAware ADS-B
Sat 06:31:49 AM -23.3360 -46.7780 158° South 233 268 7,000 -421 Descending FlightAware ADS-B
Sat 06:32:22 AM -23.3690 -46.7640 159° South 231 266 6,800 -700 Descending FlightAware ADS-B
Sat 06:32:49 AM -23.3920 -46.7440 141° Southeast 234 269 6,300 -982 Descending FlightAware ADS-B
Sat 06:33:17 AM -23.4140 -46.7240 140° Southeast 226 260 5,900 -923 Descending FlightAware ADS-B
Sat 06:33:41 AM -23.4330 -46.7060 139° Southeast 221 254 5,500 -889 Descending FlightAware ADS-B
Sat 06:34:11 AM -23.4530 -46.6800 130° Southeast 207 238 5,100 -700 Descending FlightAware ADS-B
Sat 06:34:41 AM -23.4650 -46.6540 117° Southeast 191 220 4,800 -621 Descending FlightAware ADS-B
Sat 06:35:09 AM -23.4740 -46.6300 112° Southeast 176 203 4,500 -444 Descending FlightAware ADS-B
Sat 06:35:35 AM -23.4730 -46.6130 86° East 170 196 4,400 -375 Descending FlightAware ADS-B
Sat 06:35:57 AM -23.4680 -46.5950 73° East 169 194 4,200 -792 Descending FlightAware ADS-B
Sat 06:36:28 AM -23.4610 -46.5700 73° East 154 177 3,700 -814 Descending FlightAware ADS-B
Sat 06:36:56 AM -23.4560 -46.5500 75° East 144 166 3,400 -724 Descending FlightAware ADS-B
Sat 06:37:26 AM -23.4500 -46.5300 72° East 136 157 3,000 -750 Descending FlightAware ADS-B
Sat 06:37:52 AM -23.4460 -46.5130 76° East 140 161 2,700 -488 Descending FlightAware ADS-B
Sat 06:38:52 AM -23.4360 -46.4770 73° East 137 158 2,300 -400 Descending FlightAware ADS-B

Login

Don't have an account? Register now (free) for customized features, flight alerts, and more!